Time;durP1;ratioP1;P1;durP2;ratioP2;P2;SDS_P1;SDS_P2;PMS_P1;PMS_P2;Temp;Humidity;BMP_temperature;BMP_pressure;BME280_temperature;BME280_humidity;BME280_pressure;Samples;Min_cycle;Max_cycle;Signal;HPM_P1;HPM_P2
2021/04/10 00:10:38;;;;;;;15.60;3.67;;;3.10;99.90;;;;;;5411767;23;20039;-83
2021/04/10 00:13:05;;;;;;;10.00;3.40;;;;;;;;;;4981177;28;20047;-82
2021/04/10 00:15:32;;;;;;;7.15;3.50;;;;;;;;;;4981155;28;20059;-82
2021/04/10 00:17:59;;;;;;;10.65;4.18;;;;;;;;;;4981216;28;20131;-82
2021/04/10 00:20:25;;;;;;;10.38;3.40;;;;;;;;;;4981098;28;20059;-81
2021/04/10 00:22:52;;;;;;;12.15;3.53;;;;;;;;;;4981096;28;20071;-83
2021/04/10 00:25:19;;;;;;;7.90;3.13;;;;;;;;;;4981044;28;20090;-82
2021/04/10 00:27:48;;;;;;;7.97;4.03;;;2.90;99.90;;;;;;4981013;28;20038;-81
2021/04/10 00:30:16;;;;;;;5.78;3.17;;;3.80;99.90;;;;;;4980854;28;20035;-81
2021/04/10 00:32:43;;;;;;;7.28;3.15;;;;;;;;;;4980595;28;20051;-82
2021/04/10 00:35:11;;;;;;;11.63;5.20;;;3.00;99.90;;;;;;4980908;28;20031;-81
2021/04/10 00:37:38;;;;;;;9.15;3.58;;;;;;;;;;4980944;28;20058;-82
2021/04/10 00:40:05;;;;;;;7.88;4.20;;;;;;;;;;4980733;28;20086;-82
2021/04/10 00:42:32;;;;;;;11.75;5.05;;;;;;;;;;4980583;28;20078;-81
2021/04/10 00:50:11;;;;;;;9.82;3.40;;;3.20;99.90;;;;;;5052107;23;20044;-81
2021/04/10 00:52:38;;;;;;;7.43;3.22;;;;;;;;;;4961417;28;20090;-81
2021/04/10 00:55:06;;;;;;;7.07;3.33;;;3.30;99.90;;;;;;4961453;28;20059;-81
2021/04/10 00:57:33;;;;;;;8.15;3.80;;;;;;;;;;4961309;28;20066;-81
2021/04/10 01:00:00;;;;;;;11.98;4.28;;;;;;;;;;4961450;28;20063;-81
2021/04/10 01:02:27;;;;;;;11.15;3.45;;;;;;;;;;4961321;28;20121;-82
2021/04/10 01:04:54;;;;;;;7.68;3.20;;;;;;;;;;4965187;28;20060;-81
2021/04/10 01:07:22;;;;;;;8.75;3.67;;;3.10;99.90;;;;;;4965337;28;20059;-82
2021/04/10 04:04:07;;;;;;;22.63;7.95;;;2.00;99.90;;;;;;5839728;23;20012;-82
2021/04/10 04:06:33;;;;;;;20.70;7.70;;;;;;;;;;4961364;28;20086;-82
2021/04/10 04:09:00;;;;;;;16.77;7.70;;;;;;;;;;4961478;28;20058;-82
2021/04/10 04:11:27;;;;;;;25.95;8.32;;;;;;;;;;4961174;29;20075;-81
2021/04/10 04:13:54;;;;;;;27.60;9.82;;;;;;;;;;4961428;28;20055;-82
2021/04/10 04:16:21;;;;;;;24.92;10.27;;;;;;;;;;4961368;28;20103;-82
2021/04/10 04:18:48;;;;;;;24.50;10.48;;;;;;;;;;4961440;28;20070;-82
2021/04/10 04:21:16;;;;;;;18.38;9.00;;;2.00;99.90;;;;;;4961130;28;20055;-82
2021/04/10 04:23:43;;;;;;;21.63;9.75;;;;;;;;;;4961482;28;20078;-82
2021/04/10 04:26:09;;;;;;;18.20;7.85;;;;;;;;;;4961300;28;20028;-82
2021/04/10 04:28:36;;;;;;;28.88;10.43;;;;;;;;;;4961314;28;20067;-82
2021/04/10 04:31:03;;;;;;;29.25;10.02;;;;;;;;;;4961122;28;20038;-82
2021/04/10 04:33:30;;;;;;;29.27;13.07;;;;;;;;;;4959570;29;20047;-82
2021/04/10 04:35:57;;;;;;;27.52;10.73;;;;;;;;;;4959175;28;20082;-81
2021/04/10 04:38:24;;;;;;;22.50;9.88;;;1.90;99.90;;;;;;4959064;29;20075;-81
2021/04/10 04:40:51;;;;;;;27.10;11.77;;;;;;;;;;4958607;29;20408;-81
2021/04/10 04:43:18;;;;;;;26.95;9.90;;;;;;;;;;4960710;29;20031;-82
2021/04/10 04:45:45;;;;;;;25.33;10.20;;;;;;;;;;4960747;29;20086;-82
2021/04/10 04:48:12;;;;;;;21.50;9.70;;;;;;;;;;4960524;29;20067;-82
2021/04/10 04:50:39;;;;;;;20.55;9.10;;;;;;;;;;4960320;29;20070;-82
2021/04/10 04:53:06;;;;;;;19.95;9.43;;;;;;;;;;4960486;28;20087;-82
2021/04/10 04:55:33;;;;;;;15.48;8.13;;;1.90;99.90;;;;;;4960784;28;20031;-82
2021/04/10 04:58:00;;;;;;;23.02;9.40;;;;;;;;;;4960345;29;20058;-82
2021/04/10 05:00:27;;;;;;;14.77;7.30;;;1.80;99.90;;;;;;4960554;28;20079;-82
2021/04/10 05:02:54;;;;;;;16.58;7.95;;;;;;;;;;4960397;29;20082;-82
2021/04/10 05:05:21;;;;;;;16.77;8.30;;;;;;;;;;4960103;28;20074;-83
2021/04/10 05:07:48;;;;;;;16.85;8.35;;;;;;;;;;4959923;29;20066;-82
2021/04/10 05:10:15;;;;;;;13.43;7.10;;;;;;;;;;4959818;29;20063;-82
2021/04/10 05:12:42;;;;;;;16.83;8.55;;;1.70;99.90;;;;;;4958942;29;20112;-82
2021/04/10 05:15:10;;;;;;;27.10;8.95;;;1.70;99.90;;;;;;4959549;29;20074;-82
2021/04/10 05:17:37;;;;;;;19.63;7.95;;;;;;;;;;4959470;29;20099;-82
2021/04/10 05:20:05;;;;;;;19.05;8.35;;;1.70;99.90;;;;;;4959783;29;20083;-82
2021/04/10 05:22:31;;;;;;;17.88;8.77;;;;;;;;;;4959398;29;20080;-82
2021/04/10 05:24:58;;;;;;;18.73;7.80;;;;;;;;;;4958871;29;20107;-82
2021/04/10 05:27:25;;;;;;;16.85;7.75;;;;;;;;;;4956516;29;20111;-81
2021/04/10 05:29:53;;;;;;;20.67;8.82;;;1.70;99.90;;;;;;4957109;29;20051;-81
2021/04/10 05:32:20;;;;;;;17.27;8.05;;;;;;;;;;4957053;29;20079;-81
2021/04/10 05:34:46;;;;;;;18.48;8.48;;;;;;;;;;4957674;29;20075;-82
2021/04/10 05:37:13;;;;;;;17.95;9.07;;;;;;;;;;4959578;29;20059;-82
2021/04/10 05:39:40;;;;;;;18.85;8.05;;;;;;;;;;4959071;29;20047;-82
2021/04/10 05:42:07;;;;;;;19.42;7.40;;;;;;;;;;4959236;29;20090;-82
2021/04/10 05:44:34;;;;;;;17.60;7.82;;;;;;;;;;4958772;29;20063;-82
2021/04/10 05:49:37;;;;;;;19.35;8.07;;;1.60;99.90;;;;;;5197572;23;20055;-82
2021/04/10 05:52:04;;;;;;;19.83;9.40;;;1.60;99.90;;;;;;4962669;28;20103;-81
2021/04/10 05:54:30;;;;;;;17.23;7.55;;;1.70;99.90;;;;;;4962812;29;20091;-81
2021/04/10 05:56:57;;;;;;;21.17;8.55;;;1.70;99.90;;;;;;4962933;29;20111;-81
2021/04/10 05:59:24;;;;;;;23.30;8.80;;;1.60;99.90;;;;;;4962787;29;20107;-81
2021/04/10 06:01:50;;;;;;;15.63;8.63;;;1.60;99.90;;;;;;4963334;28;20107;-81
2021/04/10 06:04:17;;;;;;;15.35;8.88;;;1.50;99.90;;;;;;4963029;29;20115;-81
2021/04/10 06:06:44;;;;;;;16.25;8.20;;;1.50;99.90;;;;;;4962544;29;20124;-80
2021/04/10 06:09:11;;;;;;;17.80;7.82;;;1.50;99.90;;;;;;4963916;28;20103;-81
2021/04/10 06:11:37;;;;;;;18.30;8.95;;;1.50;99.90;;;;;;4961457;29;20062;-81
2021/04/10 06:14:04;;;;;;;20.63;8.85;;;1.40;99.90;;;;;;4960612;29;20107;-81
2021/04/10 06:16:30;;;;;;;18.02;8.18;;;1.50;99.90;;;;;;4960627;29;20138;-81
2021/04/10 06:18:57;;;;;;;15.90;8.05;;;1.40;99.90;;;;;;4963392;28;20087;-81
2021/04/10 06:21:24;;;;;;;25.00;9.13;;;1.40;99.90;;;;;;4963391;28;20059;-81
2021/04/10 11:21:08;;;;;;;6.95;3.53;;;4.60;99.90;;;;;;5245036;23;20060;-79
2021/04/10 11:23:56;;;;;;;23.00;11.02;;;4.50;99.90;;;;;;4939920;29;20067;-79
2021/04/10 11:26:34;;;;;;;7.90;4.70;;;4.50;99.90;;;;;;4939752;29;20066;-79
2021/04/10 11:29:26;;;;;;;18.20;9.25;;;4.50;99.90;;;;;;4940574;29;20196;-79
2021/04/10 11:32:13;;;;;;;11.52;6.28;;;4.50;99.90;;;;;;4940537;29;20055;-79
2021/04/10 11:34:41;;;;;;;6.95;3.70;;;4.60;99.90;;;;;;4940746;29;20051;-79
2021/04/10 11:37:10;;;;;;;9.15;5.03;;;4.60;99.90;;;;;;4941239;29;20048;-80
2021/04/10 11:39:50;;;;;;;6.72;3.95;;;4.60;99.90;;;;;;4940670;29;20059;-79
2021/04/10 11:42:24;;;;;;;8.80;4.05;;;4.70;99.90;;;;;;4941927;29;20048;-80
2021/04/10 11:44:56;;;;;;;8.37;3.63;;;4.70;99.90;;;;;;4941981;29;20377;-79
2021/04/10 11:47:24;;;;;;;5.32;3.33;;;4.70;99.90;;;;;;4940502;29;20325;-79
2021/04/10 11:49:51;;;;;;;5.55;3.05;;;4.70;99.90;;;;;;4940476;29;20532;-79
2021/04/10 11:52:23;;;;;;;8.60;3.35;;;4.70;99.90;;;;;;4940601;29;20456;-79
2021/04/10 11:55:00;;;;;;;5.70;3.35;;;4.80;99.90;;;;;;4940272;29;20052;-79
2021/04/10 11:57:28;;;;;;;5.22;3.00;;;4.80;99.90;;;;;;4939995;29;20102;-79
2021/04/10 12:00:10;;;;;;;6.75;3.13;;;4.90;99.90;;;;;;4941389;29;20088;-79
2021/04/10 12:02:40;;;;;;;6.28;3.58;;;5.00;99.90;;;;;;4940129;29;20115;-79
2021/04/10 12:05:27;;;;;;;5.60;3.00;;;5.00;99.90;;;;;;4939318;29;20056;-79
2021/04/10 12:08:11;;;;;;;6.00;2.40;;;5.10;99.90;;;;;;4938772;29;20052;-79
2021/04/10 12:10:40;;;;;;;5.78;3.58;;;5.10;99.90;;;;;;4938353;29;20060;-79
2021/04/10 12:13:07;;;;;;;4.28;2.72;;;5.10;99.90;;;;;;4938443;29;20066;-79
2021/04/10 12:15:35;;;;;;;5.28;2.97;;;5.10;99.90;;;;;;4938647;29;20377;-79
2021/04/10 12:18:02;;;;;;;3.90;2.90;;;5.10;99.90;;;;;;4938583;29;20380;-79
2021/04/10 12:20:29;;;;;;;8.50;3.22;;;5.10;99.90;;;;;;4938204;28;20078;-79
2021/04/10 12:22:56;;;;;;;7.03;3.65;;;5.10;99.90;;;;;;4938165;29;20072;-79
2021/04/10 12:25:24;;;;;;;5.53;3.45;;;5.20;99.90;;;;;;4953238;29;20047;-79
2021/04/10 12:27:52;;;;;;;5.05;3.50;;;5.20;99.90;;;;;;4957687;29;20058;-79
2021/04/10 12:30:20;;;;;;;6.70;3.20;;;5.30;99.90;;;;;;4957716;29;20061;-79
2021/04/10 12:32:48;;;;;;;7.57;3.75;;;5.30;99.90;;;;;;4958057;29;20055;-79
2021/04/10 12:35:17;;;;;;;5.72;4.07;;;5.40;99.90;;;;;;4957561;29;20066;-79
2021/04/10 12:37:44;;;;;;;7.72;3.80;;;5.60;99.90;;;;;;4958114;29;20380;-79
2021/04/10 12:40:11;;;;;;;6.88;3.55;;;5.70;99.90;;;;;;4957768;29;20051;-79
2021/04/10 12:42:39;;;;;;;6.93;2.78;;;5.80;99.90;;;;;;4956882;29;20061;-79
2021/04/10 12:45:08;;;;;;;6.68;2.58;;;5.90;99.90;;;;;;4957647;29;20105;-79
2021/04/10 12:47:34;;;;;;;5.80;2.58;;;5.90;99.90;;;;;;4957404;29;20480;-79
2021/04/10 12:50:02;;;;;;;6.97;2.92;;;6.00;99.90;;;;;;4957924;29;20062;-79
2021/04/10 12:52:29;;;;;;;3.88;2.60;;;6.10;99.90;;;;;;4957557;29;20052;-79
2021/04/10 12:54:56;;;;;;;5.00;2.58;;;6.20;99.90;;;;;;4957795;29;20097;-79
2021/04/10 12:57:24;;;;;;;4.80;2.80;;;6.20;99.90;;;;;;4958533;29;20077;-79
2021/04/10 12:59:52;;;;;;;6.60;2.40;;;6.20;99.90;;;;;;4957943;29;20054;-79
2021/04/10 13:02:19;;;;;;;5.32;2.92;;;6.20;99.90;;;;;;4957559;29;20087;-80
2021/04/10 13:04:47;;;;;;;4.45;3.45;;;6.20;99.90;;;;;;4958583;29;20058;-79
2021/04/10 13:07:14;;;;;;;2.33;1.90;;;6.30;99.90;;;;;;4957824;29;20137;-79
2021/04/10 13:09:44;;;;;;;7.60;2.95;;;6.40;99.90;;;;;;4957527;29;20047;-79
2021/04/10 13:12:14;;;;;;;3.85;2.63;;;6.40;99.90;;;;;;4958378;29;20047;-80
2021/04/10 13:14:42;;;;;;;4.18;2.45;;;6.40;99.90;;;;;;4958670;29;20083;-79
2021/04/10 13:17:12;;;;;;;5.68;3.17;;;6.40;99.90;;;;;;4958506;29;20499;-79
2021/04/10 13:19:41;;;;;;;5.68;2.72;;;6.50;99.90;;;;;;4958512;28;20504;-80
2021/04/10 13:22:08;;;;;;;5.82;3.05;;;6.60;99.90;;;;;;4957721;29;20047;-80
2021/04/10 13:24:35;;;;;;;6.28;2.40;;;6.70;99.90;;;;;;4956660;29;20047;-79
2021/04/10 13:27:02;;;;;;;4.30;2.00;;;6.70;99.90;;;;;;4940658;29;20051;-80
2021/04/10 13:29:30;;;;;;;4.22;2.53;;;6.80;99.90;;;;;;4937213;29;20051;-80
2021/04/10 13:31:56;;;;;;;4.60;2.78;;;6.80;99.90;;;;;;4936792;29;20087;-80
2021/04/10 13:34:35;;;;;;;4.32;2.90;;;6.80;99.90;;;;;;4936464;29;20052;-80
2021/04/10 13:37:02;;;;;;;6.80;2.22;;;6.80;99.90;;;;;;4937833;29;20059;-81
2021/04/10 13:39:29;;;;;;;8.60;3.72;;;6.90;99.90;;;;;;4943682;29;20052;-83
2021/04/10 13:41:55;;;;;;;2.75;2.45;;;6.90;99.90;;;;;;4943888;29;20048;-84
2021/04/10 13:44:22;;;;;;;4.05;2.42;;;7.00;99.90;;;;;;4937707;29;20102;-84
2021/04/10 13:46:49;;;;;;;6.20;3.30;;;7.00;99.90;;;;;;4937785;29;20060;-83
2021/04/10 13:49:15;;;;;;;5.97;3.53;;;7.10;99.90;;;;;;4938097;29;20047;-85
2021/04/10 13:51:43;;;;;;;5.40;3.30;;;7.10;99.90;;;;;;4938056;29;20052;-84
2021/04/10 13:54:09;;;;;;;5.68;3.65;;;7.10;99.90;;;;;;4944434;29;20051;-83
2021/04/10 13:56:36;;;;;;;6.13;3.65;;;7.10;99.90;;;;;;4958661;29;20641;-84
2021/04/10 13:59:03;;;;;;;6.07;3.38;;;7.20;99.90;;;;;;4958667;29;20058;-83
2021/04/10 14:01:29;;;;;;;7.82;3.15;;;7.20;99.90;;;;;;4954854;29;20470;-83
2021/04/10 14:03:56;;;;;;;5.53;3.00;;;7.10;99.90;;;;;;4954144;29;20066;-83
2021/04/10 14:06:24;;;;;;;5.13;2.80;;;7.00;99.90;;;;;;4965083;29;20109;-83
2021/04/10 14:08:51;;;;;;;4.85;3.47;;;6.80;99.90;;;;;;4969042;29;20065;-82
2021/04/10 14:11:17;;;;;;;7.55;3.40;;;6.80;99.90;;;;;;4959355;28;20057;-81
2021/04/10 14:13:44;;;;;;;4.85;2.45;;;6.70;99.90;;;;;;4958435;29;20047;-81
2021/04/10 14:16:16;;;;;;;4.80;2.88;;;6.70;99.90;;;;;;4961820;29;20051;-81
2021/04/10 14:18:46;;;;;;;3.55;2.88;;;6.70;99.90;;;;;;4963711;28;20662;-79
2021/04/10 14:21:13;;;;;;;7.28;3.88;;;6.60;99.90;;;;;;4970566;29;20086;-79
2021/04/10 14:23:43;;;;;;;6.57;3.33;;;6.60;99.90;;;;;;4976938;28;20457;-81
2021/04/10 14:26:12;;;;;;;7.32;2.47;;;6.60;99.90;;;;;;4978153;28;20081;-81
2021/04/10 14:28:39;;;;;;;5.35;3.38;;;6.70;99.90;;;;;;4971762;29;20059;-81
2021/04/10 14:31:10;;;;;;;5.47;3.28;;;6.90;99.90;;;;;;4962299;29;20069;-83
2021/04/10 14:33:36;;;;;;;5.18;2.97;;;7.00;99.90;;;;;;4952987;29;20134;-81
2021/04/10 14:36:04;;;;;;;6.80;2.97;;;7.20;99.90;;;;;;4951148;29;20055;-83
2021/04/10 14:38:30;;;;;;;8.52;3.17;;;7.30;99.90;;;;;;4940074;29;20061;-84
2021/04/10 14:40:58;;;;;;;5.90;3.05;;;7.40;99.90;;;;;;4939434;29;20051;-87
2021/04/10 14:43:27;;;;;;;7.07;3.20;;;7.40;99.90;;;;;;4940018;29;20052;-87
2021/04/10 14:45:54;;;;;;;8.70;3.53;;;7.50;99.90;;;;;;4939886;29;20052;-85
2021/04/10 14:48:21;;;;;;;4.95;2.88;;;7.40;99.90;;;;;;4939622;29;20055;-85
2021/04/10 14:50:48;;;;;;;4.95;3.33;;;7.40;99.90;;;;;;4940279;29;20055;-87
2021/04/10 14:53:19;;;;;;;5.75;2.67;;;7.40;99.90;;;;;;4939663;29;20385;-94
2021/04/10 14:55:46;;;;;;;4.65;2.80;;;7.40;99.90;;;;;;4941956;29;20075;-84
2021/04/10 14:58:17;;;;;;;2.70;2.20;;;7.40;99.90;;;;;;4951768;29;20063;-84
2021/04/10 15:00:52;;;;;;;4.70;3.03;;;7.40;99.90;;;;;;4955614;29;20059;-82
2021/04/10 15:03:22;;;;;;;4.47;2.72;;;7.40;99.90;;;;;;4957424;29;20047;-83
2021/04/10 15:05:52;;;;;;;6.65;3.35;;;7.50;99.90;;;;;;4958452;29;20061;-84
2021/04/10 15:08:20;;;;;;;8.05;2.95;;;7.50;99.90;;;;;;4957990;29;20047;-87
2021/04/10 15:10:47;;;;;;;4.50;2.60;;;7.50;99.90;;;;;;4957932;29;20141;-85
2021/04/10 15:13:14;;;;;;;6.07;2.92;;;7.50;99.90;;;;;;4956808;29;20055;-86
2021/04/10 15:15:41;;;;;;;4.03;2.10;;;7.50;99.90;;;;;;4958152;29;20058;-86
2021/04/10 15:18:07;;;;;;;6.43;3.20;;;7.50;99.90;;;;;;4957942;29;20113;-86
2021/04/10 15:20:34;;;;;;;8.98;3.55;;;7.40;99.90;;;;;;4957187;28;20391;-86
2021/04/10 15:23:02;;;;;;;5.40;3.05;;;7.40;99.90;;;;;;4957200;28;20051;-85
2021/04/10 15:25:29;;;;;;;6.40;3.28;;;7.30;99.90;;;;;;4941828;29;20063;-85
2021/04/10 15:27:56;;;;;;;5.30;3.33;;;7.20;99.90;;;;;;4938624;29;20061;-84
2021/04/10 15:30:25;;;;;;;9.52;3.15;;;7.10;99.90;;;;;;4938479;29;20055;-83
2021/04/10 15:32:52;;;;;;;6.78;3.85;;;7.00;99.90;;;;;;4938876;29;20130;-82
2021/04/10 15:35:19;;;;;;;5.47;3.47;;;6.90;99.90;;;;;;4938767;29;20087;-82
2021/04/10 15:37:45;;;;;;;7.22;2.63;;;6.80;99.90;;;;;;4939568;29;20059;-82
2021/04/10 15:40:14;;;;;;;4.57;2.65;;;6.70;99.90;;;;;;4940210;29;20126;-80
2021/04/10 15:42:44;;;;;;;4.70;2.40;;;6.60;99.90;;;;;;4959495;28;20055;-83
2021/04/10 15:45:17;;;;;;;5.15;2.45;;;6.50;99.90;;;;;;5412939;23;20055;-83
2021/04/10 15:47:46;;;;;;;4.40;2.78;;;6.50;99.90;;;;;;5004485;23;20055;-83
2021/04/10 16:00:42;;;;;;;13.70;5.68;;;5.80;99.90;;;;;;5718829;23;20030;-81
